Time;durP1;ratioP1;P1;durP2;ratioP2;P2;SDS_P1;SDS_P2;PMS_P1;PMS_P2;Temp;Humidity;BMP_temperature;BMP_pressure;BME280_temperature;BME280_humidity;BME280_pressure;Samples;Min_cycle;Max_cycle;Signal;HPM_P1;HPM_P2
2023/06/04 00:01:02;;;;;;;4.05;1.00;;;;;;;30.27;21.39;101039.41;5006050;28;20132;-73
2023/06/04 00:03:40;;;;;;;3.42;0.80;;;;;;;30.30;22.35;101034.88;5004770;28;20054;-74
2023/06/04 00:06:11;;;;;;;1.40;1.08;;;;;;;30.32;20.59;101030.31;5007412;28;20710;-73
2023/06/04 00:08:39;;;;;;;2.03;0.93;;;;;;;30.35;20.57;101032.81;5006632;28;20057;-76
2023/06/04 00:11:10;;;;;;;1.98;1.13;;;;;;;30.32;20.91;101025.84;5003171;28;20153;-72
2023/06/04 00:13:38;;;;;;;2.47;0.90;;;;;;;30.29;20.68;101026.00;5005662;28;20068;-72
2023/06/04 00:16:07;;;;;;;2.40;1.00;;;;;;;30.30;20.97;101027.72;5006766;28;20053;-72
2023/06/04 00:18:41;;;;;;;2.35;0.93;;;;;;;30.33;21.09;101024.03;5006437;28;20062;-72
2023/06/04 00:21:09;;;;;;;1.77;1.13;;;;;;;30.28;20.67;101026.91;5005211;28;20057;-71
2023/06/04 00:23:38;;;;;;;3.20;0.93;;;;;;;30.25;19.95;101027.91;4998447;28;20057;-71
2023/06/04 00:26:08;;;;;;;1.35;0.90;;;;;;;30.23;20.16;101013.75;4998347;28;20674;-70
2023/06/04 00:28:38;;;;;;;1.95;1.10;;;;;;;30.26;21.16;101019.00;5002318;28;20042;-73
2023/06/04 00:31:07;;;;;;;2.65;1.00;;;;;;;30.31;23.90;101015.25;5002953;28;20053;-71
2023/06/04 00:33:36;;;;;;;1.40;0.98;;;;;;;30.24;23.12;101014.66;5003786;28;20109;-76
2023/06/04 00:36:05;;;;;;;3.72;1.05;;;;;;;30.12;22.33;101013.41;5001065;28;20050;-70
2023/06/04 00:38:33;;;;;;;3.50;1.05;;;;;;;29.96;21.78;101009.75;5006479;28;20050;-71
2023/06/04 00:41:03;;;;;;;2.47;1.05;;;;;;;29.93;21.63;101010.78;5002882;28;20129;-71
2023/06/04 00:43:33;;;;;;;4.63;1.52;;;;;;;29.85;22.16;101005.81;5002958;28;20153;-70
2023/06/04 00:46:04;;;;;;;7.00;1.10;;;;;;;29.82;22.75;101011.28;5006403;28;20042;-69
2023/06/04 00:48:33;;;;;;;3.55;1.15;;;;;;;29.81;24.24;101004.22;5006193;28;20081;-70
2023/06/04 00:51:02;;;;;;;5.90;1.25;;;;;;;29.81;22.35;100998.03;5003856;28;20081;-70
2023/06/04 00:53:33;;;;;;;1.42;0.93;;;;;;;29.73;22.07;101003.69;5002463;28;20053;-71
2023/06/04 00:56:05;;;;;;;2.73;0.97;;;;;;;29.59;23.22;100998.97;5000469;28;20116;-72
2023/06/04 00:58:40;;;;;;;2.50;0.95;;;;;;;29.47;24.17;101002.22;5005177;28;20556;-71
2023/06/04 01:01:16;;;;;;;3.58;0.90;;;;;;;29.41;25.91;101008.72;5005630;28;20045;-71
2023/06/04 01:03:51;;;;;;;3.10;0.90;;;;;;;29.34;26.77;101006.38;5003105;28;20054;-72
2023/06/04 01:06:30;;;;;;;1.92;0.88;;;;;;;29.23;26.76;101004.19;5012323;28;20697;-71
2023/06/04 01:09:01;;;;;;;3.63;0.98;;;;;;;29.18;28.35;101000.84;5008278;28;20530;-71
2023/06/04 01:11:37;;;;;;;3.60;1.00;;;;;;;29.12;27.96;101001.16;5010596;28;20061;-70
2023/06/04 01:14:08;;;;;;;2.13;1.00;;;;;;;29.03;28.04;101008.56;5005794;28;20605;-71
2023/06/04 01:17:01;;;;;;;4.45;1.20;;;;;;;28.81;27.73;101003.28;5009851;28;20689;-71
2023/06/04 01:19:42;;;;;;;;;;;;;;;28.65;27.83;101001.34;5004122;28;20104;-70
2023/06/04 01:22:23;;;;;;;6.03;1.00;;;;;;;28.52;29.39;101000.97;5005344;28;19929;-69
2023/06/04 01:24:57;;;;;;;3.53;1.00;;;;;;;28.34;29.39;101008.78;5006834;28;20081;-71
2023/06/04 01:27:26;;;;;;;2.35;1.00;;;;;;;28.25;29.92;101005.63;5002654;28;20492;-71
2023/06/04 01:29:56;;;;;;;2.13;1.00;;;;;;;28.01;29.36;101005.66;5007115;28;20115;-70
2023/06/04 01:32:35;;;;;;;2.90;0.70;;;;;;;27.92;29.61;101014.00;5007484;28;20443;-73
2023/06/04 01:35:03;;;;;;;1.45;0.80;;;;;;;27.82;30.26;101004.63;5005917;28;20045;-73
2023/06/04 01:37:32;;;;;;;6.00;1.00;;;;;;;27.73;30.64;101016.47;5003302;28;20073;-72
2023/06/04 01:40:00;;;;;;;2.67;1.00;;;;;;;27.53;30.20;101009.22;5004909;28;20077;-72
2023/06/04 01:42:31;;;;;;;3.78;1.15;;;;;;;27.36;31.42;101010.72;5006163;28;20942;-70
2023/06/04 01:45:00;;;;;;;1.35;0.93;;;;;;;27.23;31.21;101017.38;5006687;28;20054;-72
2023/06/04 01:47:30;;;;;;;1.98;1.02;;;;;;;27.07;31.44;101018.81;5000780;28;20049;-71
2023/06/04 01:49:58;;;;;;;7.25;1.30;;;;;;;26.98;32.69;101022.66;5006302;28;21141;-72
2023/06/04 01:52:31;;;;;;;2.03;0.95;;;;;;;26.86;31.81;101029.25;5003995;28;20558;-70
2023/06/04 01:55:00;;;;;;;2.03;1.00;;;;;;;26.68;31.83;101044.03;5004732;28;20109;-71
2023/06/04 01:57:29;;;;;;;4.72;1.10;;;;;;;26.58;32.61;101045.25;5005698;28;20676;-72
2023/06/04 01:59:57;;;;;;;6.07;1.40;;;;;;;26.43;32.19;101043.91;5006559;28;20562;-71
2023/06/04 02:02:29;;;;;;;3.75;1.10;;;;;;;26.35;33.49;101048.59;5003858;28;20073;-70
2023/06/04 02:04:59;;;;;;;2.45;0.95;;;;;;;26.27;32.89;101063.88;5004341;28;20042;-70
2023/06/04 02:07:28;;;;;;;1.67;0.95;;;;;;;26.12;32.77;101063.44;5001646;28;20062;-69
2023/06/04 02:09:56;;;;;;;2.70;1.27;;;;;;;25.99;33.26;101071.81;5006194;28;20532;-70
2023/06/04 02:12:25;;;;;;;2.38;1.30;;;;;;;25.87;34.01;101073.06;5006429;28;20053;-71
2023/06/04 02:14:53;;;;;;;5.55;1.05;;;;;;;25.76;33.42;101072.44;5004214;28;20050;-70
2023/06/04 02:17:22;;;;;;;3.85;1.00;;;;;;;25.72;33.28;101084.91;5007015;28;20544;-71
2023/06/04 02:19:51;;;;;;;3.00;0.88;;;;;;;25.64;33.44;101087.78;4985798;28;20492;-71
2023/06/04 02:22:22;;;;;;;1.77;1.00;;;;;;;25.57;33.36;101095.97;4990486;28;20483;-70
2023/06/04 02:24:50;;;;;;;3.67;0.80;;;;;;;25.48;33.60;101103.22;4987486;28;20046;-68
2023/06/04 02:27:22;;;;;;;1.27;0.93;;;;;;;25.43;33.59;101101.63;4988426;28;20066;-68
2023/06/04 02:29:50;;;;;;;5.05;1.35;;;;;;;25.33;33.87;101105.41;4983516;28;20050;-70
2023/06/04 02:32:20;;;;;;;4.45;1.17;;;;;;;25.22;33.17;101106.59;4987710;28;20511;-72
2023/06/04 02:34:48;;;;;;;2.35;1.00;;;;;;;25.10;33.39;101106.84;4988011;28;20050;-71
2023/06/04 02:37:17;;;;;;;3.90;1.25;;;;;;;25.03;33.14;101110.56;4981422;28;20047;-70
2023/06/04 02:39:47;;;;;;;1.85;0.95;;;;;;;24.95;33.14;101112.53;4985815;28;20041;-69
2023/06/04 02:42:16;;;;;;;2.22;0.90;;;;;;;24.82;32.83;101118.09;4980353;28;20088;-71
2023/06/04 02:44:44;;;;;;;3.90;0.73;;;;;;;24.65;32.69;101122.94;4967974;28;20511;-70
2023/06/04 02:47:14;;;;;;;3.40;1.00;;;;;;;24.56;33.04;101128.44;4980740;28;20058;-70
2023/06/04 02:49:43;;;;;;;2.25;0.73;;;;;;;24.48;33.72;101119.81;4988653;28;20137;-70
2023/06/04 02:52:15;;;;;;;1.63;0.90;;;;;;;24.41;33.20;101125.19;4989407;28;20472;-68
2023/06/04 02:54:44;;;;;;;2.33;1.00;;;;;;;24.33;33.33;101128.94;4993226;28;20046;-69
2023/06/04 02:57:14;;;;;;;1.50;0.93;;;;;;;24.24;33.72;101137.91;4992924;28;20508;-68
2023/06/04 02:59:43;;;;;;;2.80;1.00;;;;;;;24.11;33.94;101141.72;4981891;28;20046;-70
2023/06/04 03:02:15;;;;;;;3.08;0.70;;;;;;;24.02;34.48;101138.34;4993892;28;20054;-68
2023/06/04 03:04:50;;;;;;;3.33;0.70;;;;;;;23.95;34.65;101139.38;4988391;28;20136;-70
2023/06/04 03:07:20;;;;;;;2.08;0.82;;;;;;;23.91;35.10;101150.91;4990758;28;20054;-68
2023/06/04 03:09:49;;;;;;;3.47;1.15;;;;;;;23.88;34.41;101158.91;4987446;28;20058;-70
2023/06/04 03:12:19;;;;;;;1.63;0.85;;;;;;;23.84;35.21;101167.78;4983457;28;20051;-72
2023/06/04 03:14:47;;;;;;;1.17;0.55;;;;;;;23.83;34.94;101181.91;4986361;28;20047;-73
2023/06/04 03:17:16;;;;;;;1.77;0.60;;;;;;;23.81;34.71;101178.41;5006771;28;20108;-71
2023/06/04 03:19:45;;;;;;;2.72;1.05;;;;;;;23.77;35.50;101182.00;5007548;28;20066;-71
2023/06/04 03:22:13;;;;;;;2.80;0.90;;;;;;;23.69;35.23;101183.91;5007653;28;20302;-71
2023/06/04 03:24:42;;;;;;;2.35;0.88;;;;;;;23.56;36.07;101193.81;5013850;28;20054;-69
2023/06/04 03:27:12;;;;;;;2.38;0.88;;;;;;;23.40;36.67;101194.06;5007398;28;20046;-71
2023/06/04 03:29:42;;;;;;;5.70;0.90;;;;;;;23.34;35.90;101203.84;5007224;28;20071;-72
2023/06/04 03:32:12;;;;;;;2.75;0.90;;;;;;;23.26;37.04;101206.63;5006369;28;20060;-71
2023/06/04 03:34:41;;;;;;;4.32;1.15;;;;;;;23.15;37.12;101214.69;5005404;28;20046;-74
2023/06/04 03:37:09;;;;;;;3.45;0.85;;;;;;;23.07;38.20;101215.75;5006271;28;20048;-74
2023/06/04 03:39:38;;;;;;;5.28;1.02;;;;;;;23.00;37.72;101220.22;5005472;28;20041;-73
2023/06/04 03:42:07;;;;;;;2.10;0.65;;;;;;;22.89;39.22;101222.13;5007089;28;20049;-74
2023/06/04 03:44:35;;;;;;;4.80;1.00;;;;;;;22.77;39.06;101231.94;5009678;28;20050;-72
2023/06/04 03:47:09;;;;;;;1.77;0.70;;;;;;;22.66;39.02;101233.84;5019852;28;20691;-73
2023/06/04 03:49:38;;;;;;;2.80;0.80;;;;;;;22.49;39.01;101241.06;5022281;28;20419;-73
2023/06/04 03:52:07;;;;;;;1.95;0.60;;;;;;;22.34;39.62;101245.66;5022244;28;20543;-72
2023/06/04 03:54:35;;;;;;;4.50;0.90;;;;;;;22.24;40.23;101244.03;5023414;28;20697;-72
2023/06/04 03:57:04;;;;;;;2.30;0.70;;;;;;;22.14;40.22;101248.47;5023045;28;20053;-73
2023/06/04 03:59:32;;;;;;;4.57;0.90;;;;;;;22.04;40.21;101261.78;5023978;28;20784;-73
2023/06/04 04:02:09;;;;;;;2.35;0.70;;;;;;;21.92;41.15;101273.28;5020593;28;20048;-72
2023/06/04 04:04:37;;;;;;;1.00;0.60;;;;;;;21.82;40.10;101269.00;5026136;28;20060;-73
2023/06/04 04:07:06;;;;;;;3.88;0.77;;;;;;;21.72;40.41;101274.34;5024713;28;20056;-74
2023/06/04 04:09:36;;;;;;;5.07;1.08;;;;;;;21.63;40.65;101273.53;5024999;28;20392;-74
2023/06/04 04:12:05;;;;;;;1.80;0.90;;;;;;;21.49;41.14;101278.91;5022537;28;20057;-71
2023/06/04 04:14:33;;;;;;;0.93;0.50;;;;;;;21.32;41.63;101271.09;5025542;28;20053;-74
2023/06/04 04:17:02;;;;;;;1.67;0.77;;;;;;;21.17;42.33;101279.09;5012271;28;20062;-75
2023/06/04 04:19:32;;;;;;;2.85;0.77;;;;;;;21.02;41.75;101286.19;5000662;28;20570;-75
2023/06/04 04:22:01;;;;;;;2.33;0.60;;;;;;;20.80;42.29;101290.69;4996987;28;20054;-75
2023/06/04 04:24:29;;;;;;;3.20;0.70;;;;;;;20.67;42.85;101297.72;4995073;28;20050;-74
2023/06/04 04:26:58;;;;;;;1.77;0.45;;;;;;;20.52;43.78;101303.00;5004067;28;20052;-71
2023/06/04 04:29:27;;;;;;;3.65;0.85;;;;;;;20.36;43.66;101314.44;5005918;28;20058;-73
2023/06/04 04:31:57;;;;;;;1.42;0.40;;;;;;;20.13;44.50;101314.47;5006782;28;20049;-76
2023/06/04 04:34:27;;;;;;;2.35;0.65;;;;;;;20.01;44.79;101317.97;5005718;28;20116;-76
2023/06/04 04:36:57;;;;;;;3.42;0.80;;;;;;;19.91;45.24;101321.50;5013309;28;20506;-72
2023/06/04 04:39:26;;;;;;;2.28;0.60;;;;;;;19.82;45.55;101331.13;4996495;28;20054;-73
2023/06/04 04:41:55;;;;;;;4.50;0.77;;;;;;;19.73;45.86;101330.25;5008305;28;20053;-73
2023/06/04 04:44:24;;;;;;;1.20;0.52;;;;;;;19.60;46.01;101324.91;5006166;28;20132;-73
2023/06/04 04:46:52;;;;;;;3.30;1.00;;;;;;;19.49;46.59;101338.91;5004338;28;20066;-72
2023/06/04 04:49:21;;;;;;;1.65;0.60;;;;;;;19.38;46.65;101337.16;5006123;28;20378;-74
2023/06/04 04:51:49;;;;;;;1.45;0.70;;;;;;;19.32;47.93;101350.25;5008102;28;20105;-74
2023/06/04 04:54:19;;;;;;;1.05;0.50;;;;;;;19.17;46.76;101343.22;5004435;28;20145;-73
2023/06/04 04:56:48;;;;;;;4.13;0.82;;;;;;;19.08;47.58;101351.06;5005780;28;20086;-72
2023/06/04 04:59:16;;;;;;;4.53;1.00;;;;;;;18.99;47.81;101351.00;5005340;28;21018;-74
2023/06/04 05:01:45;;;;;;;2.17;0.55;;;;;;;18.90;47.70;101351.84;5004283;28;20463;-72
2023/06/04 05:04:14;;;;;;;4.13;0.73;;;;;;;18.80;48.13;101357.91;5006026;28;20512;-73
2023/06/04 05:06:42;;;;;;;3.63;0.77;;;;;;;18.70;49.17;101362.19;5002925;28;20038;-72
2023/06/04 05:09:11;;;;;;;3.40;0.68;;;;;;;18.52;48.97;101365.56;5004123;28;20045;-73
2023/06/04 05:11:41;;;;;;;2.60;0.70;;;;;;;18.33;49.72;101369.81;5008651;28;20134;-71
2023/06/04 05:14:10;;;;;;;2.58;0.63;;;;;;;18.21;48.94;101365.34;5005703;28;20050;-73
2023/06/04 05:16:40;;;;;;;0.57;0.57;;;;;;;18.16;49.61;101374.94;5006097;28;20128;-73
2023/06/04 05:19:10;;;;;;;1.20;0.70;;;;;;;18.13;49.77;101380.13;5003815;28;20438;-74
2023/06/04 05:21:39;;;;;;;3.38;0.80;;;;;;;18.05;50.83;101378.28;5005112;28;20065;-72
2023/06/04 05:24:07;;;;;;;2.28;0.60;;;;;;;17.88;50.24;101379.03;5024034;28;20099;-72
2023/06/04 05:26:37;;;;;;;2.08;0.80;;;;;;;17.80;50.87;101380.69;5024874;28;20050;-72
2023/06/04 05:29:07;;;;;;;2.05;0.60;;;;;;;17.76;50.94;101384.13;5025317;28;20087;-73
2023/06/04 05:31:36;;;;;;;1.52;0.60;;;;;;;17.69;51.56;101379.69;5031053;28;20049;-73
2023/06/04 05:34:05;;;;;;;1.08;0.60;;;;;;;17.62;51.97;101391.84;5027473;28;20052;-72
2023/06/04 05:36:34;;;;;;;3.33;0.80;;;;;;;17.55;51.68;101393.50;5021851;28;20129;-72
2023/06/04 05:39:02;;;;;;;3.15;0.60;;;;;;;17.48;52.03;101391.69;5023254;28;20049;-71
2023/06/04 05:41:31;;;;;;;5.20;0.80;;;;;;;17.42;52.43;101398.59;5029999;28;20656;-73
2023/06/04 05:43:59;;;;;;;6.85;0.80;;;;;;;17.30;52.08;101397.56;5024038;28;20050;-71
2023/06/04 05:46:30;;;;;;;2.10;0.57;;;;;;;17.25;52.63;101407.09;5025488;28;20054;-71
2023/06/04 05:48:59;;;;;;;7.22;0.73;;;;;;;17.15;53.80;101406.09;5025575;28;20503;-71
2023/06/04 05:51:27;;;;;;;2.65;0.70;;;;;;;17.10;53.76;101418.22;5026785;28;20069;-72
2023/06/04 05:53:56;;;;;;;0.70;0.57;;;;;;;17.00;53.37;101420.72;5026234;28;20045;-71
2023/06/04 05:56:26;;;;;;;2.40;0.50;;;;;;;16.90;53.43;101424.91;5025199;28;20502;-71
2023/06/04 05:58:54;;;;;;;1.67;0.40;;;;;;;16.84;53.73;101428.34;5026340;28;20836;-71
2023/06/04 06:01:23;;;;;;;0.63;0.40;;;;;;;16.81;53.72;101433.50;5024735;28;20053;-71
2023/06/04 06:03:53;;;;;;;3.03;0.98;;;;;;;16.76;53.87;101433.41;5024859;28;20123;-71
2023/06/04 06:06:22;;;;;;;0.95;0.63;;;;;;;16.69;53.95;101433.28;5025453;28;20065;-72
2023/06/04 06:08:51;;;;;;;2.53;0.50;;;;;;;16.64;53.33;101443.69;5026829;28;20111;-72
2023/06/04 06:11:19;;;;;;;4.50;0.80;;;;;;;16.58;53.76;101442.69;5024932;28;20140;-72
2023/06/04 06:13:48;;;;;;;6.65;0.73;;;;;;;16.50;54.70;101456.53;5027802;28;20384;-71
2023/06/04 06:16:16;;;;;;;3.20;0.68;;;;;;;16.42;54.21;101450.28;5026214;28;20057;-73
2023/06/04 06:18:45;;;;;;;1.75;0.50;;;;;;;16.35;54.89;101456.25;4989035;28;20070;-71
2023/06/04 06:21:15;;;;;;;1.05;0.43;;;;;;;16.27;53.67;101457.88;4992221;28;20057;-72
2023/06/04 06:23:44;;;;;;;3.92;0.77;;;;;;;16.21;54.97;101456.03;4975410;28;20058;-72
2023/06/04 06:26:13;;;;;;;2.83;0.68;;;;;;;16.18;54.64;101462.94;4979455;28;20692;-72
2023/06/04 06:28:42;;;;;;;1.13;0.68;;;;;;;16.11;54.41;101460.22;4983135;28;20513;-73
2023/06/04 06:31:10;;;;;;;1.08;0.52;;;;;;;16.09;54.90;101469.75;4989324;28;20082;-71
2023/06/04 06:33:40;;;;;;;1.65;0.60;;;;;;;16.03;53.29;101471.34;4987621;28;20073;-71
2023/06/04 06:36:09;;;;;;;2.30;0.60;;;;;;;15.91;54.04;101472.88;4990589;28;20138;-72
2023/06/04 06:38:40;;;;;;;1.02;0.40;;;;;;;15.81;53.60;101476.19;4988315;28;20120;-71
2023/06/04 06:41:08;;;;;;;0.43;0.35;;;;;;;15.75;53.55;101476.06;4989046;28;20053;-72
2023/06/04 06:43:37;;;;;;;1.20;0.50;;;;;;;15.67;53.03;101482.84;4985546;28;20118;-72
2023/06/04 06:46:06;;;;;;;2.75;0.52;;;;;;;15.59;54.12;101485.25;4987716;28;20114;-72
2023/06/04 06:48:34;;;;;;;3.63;0.63;;;;;;;15.57;53.05;101491.28;4972755;28;20125;-73
2023/06/04 06:51:03;;;;;;;1.13;0.50;;;;;;;15.52;54.78;101491.22;4987271;28;20089;-72
2023/06/04 06:53:32;;;;;;;1.88;0.40;;;;;;;15.45;52.72;101486.72;4989860;28;20394;-70
2023/06/04 06:56:02;;;;;;;1.30;0.82;;;;;;;15.39;52.78;101495.31;4986188;28;20531;-73
2023/06/04 06:58:30;;;;;;;2.35;0.52;;;;;;;15.33;53.22;101491.69;4987329;28;20120;-71
2023/06/04 07:00:59;;;;;;;1.48;0.30;;;;;;;15.29;53.90;101494.19;4988536;28;20046;-72
2023/06/04 07:03:27;;;;;;;1.13;0.45;;;;;;;15.16;51.18;101491.28;4975155;28;20757;-72
2023/06/04 07:05:56;;;;;;;2.05;0.80;;;;;;;15.12;52.07;101495.56;4980292;28;20066;-72
2023/06/04 07:08:24;;;;;;;0.85;0.30;;;;;;;15.10;52.75;101489.44;4988167;28;20054;-70
2023/06/04 07:10:53;;;;;;;3.72;0.60;;;;;;;15.10;52.09;101502.47;4983649;28;20063;-70
2023/06/04 07:13:26;;;;;;;1.35;0.57;;;;;;;15.07;51.70;101497.16;4987136;28;20054;-70
2023/06/04 07:15:55;;;;;;;1.48;0.70;;;;;;;15.05;52.28;101496.28;4987236;28;20420;-72
2023/06/04 07:18:24;;;;;;;0.70;0.43;;;;;;;14.94;48.31;101492.53;5008751;28;20558;-70
2023/06/04 07:20:52;;;;;;;0.52;0.40;;;;;;;14.91;49.01;101492.44;5004402;28;20508;-71
2023/06/04 07:23:21;;;;;;;3.20;0.60;;;;;;;14.87;49.49;101500.19;5000598;28;20133;-73
2023/06/04 07:25:50;;;;;;;1.98;0.30;;;;;;;14.82;48.26;101494.00;5002961;28;20049;-72
2023/06/04 07:28:18;;;;;;;2.30;0.50;;;;;;;14.78;48.12;101497.38;5001721;28;20062;-71
2023/06/04 07:30:49;;;;;;;1.10;0.45;;;;;;;14.75;47.17;101502.53;5005091;28;20583;-73
2023/06/04 07:33:17;;;;;;;2.88;0.77;;;;;;;14.73;44.71;101492.88;5001922;28;20046;-73
2023/06/04 07:35:46;;;;;;;1.40;0.47;;;;;;;14.70;45.44;101498.91;5002674;28;20057;-74
2023/06/04 07:38:15;;;;;;;1.33;0.40;;;;;;;14.66;45.38;101497.09;5004676;28;20096;-73
2023/06/04 07:40:43;;;;;;;0.57;0.40;;;;;;;14.59;45.00;101511.69;5005834;28;20046;-73
2023/06/04 07:43:12;;;;;;;0.45;0.40;;;;;;;14.51;45.03;101494.06;5001283;28;20085;-72
2023/06/04 07:45:40;;;;;;;1.38;0.60;;;;;;;14.51;45.12;101512.28;5003498;28;20046;-73
2023/06/04 07:48:11;;;;;;;1.20;0.50;;;;;;;14.52;46.20;101517.50;5003347;28;20041;-73
2023/06/04 07:50:40;;;;;;;0.95;0.50;;;;;;;14.51;46.39;101518.38;5002669;28;20109;-72
2023/06/04 07:53:08;;;;;;;1.30;0.30;;;;;;;14.48;47.00;101523.50;5002402;28;20077;-72
2023/06/04 07:55:37;;;;;;;2.70;0.52;;;;;;;14.46;46.46;101523.47;5004178;28;20092;-72
2023/06/04 07:58:06;;;;;;;0.30;0.30;;;;;;;14.43;45.33;101526.00;5001729;28;20046;-72
2023/06/04 08:00:38;;;;;;;1.23;0.65;;;;;;;14.43;45.87;101523.41;5002697;28;20054;-72
2023/06/04 08:03:07;;;;;;;1.65;0.50;;;;;;;14.41;45.52;101516.38;5005672;28;20038;-72
2023/06/04 08:05:38;;;;;;;0.70;0.50;;;;;;;14.43;45.30;101514.66;4998813;28;20037;-73
2023/06/04 08:08:07;;;;;;;4.30;0.52;;;;;;;14.42;45.84;101521.63;4997550;28;20513;-73
2023/06/04 08:10:42;;;;;;;1.70;0.55;;;;;;;14.39;45.75;101513.72;5021164;28;20053;-73
2023/06/04 08:13:11;;;;;;;0.82;0.40;;;;;;;14.35;47.36;101516.22;5022455;28;20050;-72
2023/06/04 08:15:39;;;;;;;0.77;0.50;;;;;;;14.29;45.86;101514.31;5024540;28;20058;-72
2023/06/04 08:18:08;;;;;;;1.40;0.68;;;;;;;14.25;46.24;101512.50;5023452;28;20053;-73
2023/06/04 08:20:39;;;;;;;4.03;0.50;;;;;;;14.22;46.96;101517.59;5023207;28;20045;-73
2023/06/04 08:23:08;;;;;;;1.13;0.32;;;;;;;14.19;46.04;101520.13;5022477;28;20060;-73
2023/06/04 08:25:36;;;;;;;0.30;0.30;;;;;;;14.13;45.42;101517.34;5023488;28;20053;-71
2023/06/04 08:28:05;;;;;;;1.65;0.50;;;;;;;14.13;45.52;101517.34;5025212;28;20127;-72
2023/06/04 08:30:35;;;;;;;2.45;0.30;;;;;;;14.12;47.06;101526.88;5024416;28;20112;-71
2023/06/04 08:33:04;;;;;;;0.25;0.25;;;;;;;14.11;46.97;101525.16;5020939;28;20548;-73
2023/06/04 08:35:33;;;;;;;2.45;0.38;;;;;;;14.08;48.22;101519.84;5024664;28;20046;-72
2023/06/04 08:38:04;;;;;;;1.75;0.47;;;;;;;14.03;47.42;101519.72;5018907;28;20472;-72
2023/06/04 08:40:34;;;;;;;1.17;0.50;;;;;;;14.02;47.11;101523.16;5022197;28;20101;-72
2023/06/04 08:43:03;;;;;;;0.50;0.50;;;;;;;13.95;46.86;101518.63;5021194;28;20049;-73
2023/06/04 08:45:40;;;;;;;0.77;0.40;;;;;;;14.00;47.05;101535.25;5023906;28;20045;-72
2023/06/04 08:48:12;;;;;;;1.45;0.40;;;;;;;13.99;46.64;101533.47;5023029;28;20045;-72
2023/06/04 08:50:44;;;;;;;2.75;0.73;;;;;;;13.99;46.76;101537.78;5024284;28;20113;-72
2023/06/04 08:53:19;;;;;;;1.45;0.47;;;;;;;13.97;46.47;101534.25;5021695;28;20115;-73
2023/06/04 08:55:51;;;;;;;2.42;0.30;;;;;;;13.94;46.63;101531.59;5024133;28;20589;-71
2023/06/04 08:58:21;;;;;;;1.73;0.52;;;;;;;13.95;46.65;101546.34;5023004;28;20057;-72
2023/06/04 09:00:51;;;;;;;0.55;0.43;;;;;;;13.93;47.16;101548.06;5026875;28;20056;-70
2023/06/04 09:03:21;;;;;;;2.70;0.50;;;;;;;13.89;47.28;101547.06;5026867;28;20049;-71
2023/06/04 09:05:50;;;;;;;0.73;0.40;;;;;;;13.85;48.36;101540.00;5029348;28;20068;-71
2023/06/04 09:08:22;;;;;;;3.35;0.55;;;;;;;13.80;48.06;101552.00;5025439;28;20232;-72
2023/06/04 09:10:57;;;;;;;1.20;0.47;;;;;;;13.78;48.22;101551.06;5031687;28;20049;-72
2023/06/04 09:13:32;;;;;;;9.38;1.05;;;;;;;13.74;48.65;101552.72;5028999;28;20096;-72
2023/06/04 09:16:02;;;;;;;0.93;0.55;;;;;;;13.73;48.52;101547.47;5030515;28;20052;-72
2023/06/04 09:18:31;;;;;;;3.30;0.90;;;;;;;13.68;49.49;101549.06;5012263;28;20069;-74
2023/06/04 09:21:07;;;;;;;1.55;0.30;;;;;;;13.66;48.10;101554.22;5017713;28;20503;-71
2023/06/04 09:23:45;;;;;;;1.20;0.50;;;;;;;13.61;48.20;101543.66;5010089;28;20141;-72
2023/06/04 09:26:14;;;;;;;1.52;0.30;;;;;;;13.60;48.69;101554.00;5010144;28;20140;-72
2023/06/04 09:28:43;;;;;;;0.50;0.30;;;;;;;13.59;48.12;101547.94;5008582;28;20065;-71
2023/06/04 09:31:15;;;;;;;3.92;0.30;;;;;;;13.57;48.26;101554.81;5014294;28;20049;-71
2023/06/04 09:33:47;;;;;;;1.75;0.38;;;;;;;13.54;49.11;101559.06;5007719;28;20050;-72
2023/06/04 09:36:19;;;;;;;3.55;0.45;;;;;;;13.52;49.10;101556.41;5008516;28;20748;-72
2023/06/04 09:38:49;;;;;;;0.93;0.13;;;;;;;13.50;47.74;101554.59;5009433;28;20046;-72
2023/06/04 09:41:21;;;;;;;1.40;0.32;;;;;;;13.46;48.46;101558.78;5007469;28;20046;-72
2023/06/04 09:43:49;;;;;;;0.52;0.32;;;;;;;13.45;49.13;101559.66;5014045;28;20108;-71
2023/06/04 09:46:21;;;;;;;1.63;0.50;;;;;;;13.43;48.22;101560.44;5011027;28;20053;-72
2023/06/04 09:48:49;;;;;;;2.60;0.32;;;;;;;13.42;48.36;101554.34;5014717;28;20381;-71
2023/06/04 09:51:19;;;;;;;4.45;0.40;;;;;;;13.40;48.91;101561.22;5009106;28;20131;-72
2023/06/04 09:53:58;;;;;;;2.65;0.52;;;;;;;13.34;48.53;101546.31;5007894;28;20070;-72
2023/06/04 09:56:28;;;;;;;1.85;0.30;;;;;;;13.36;49.15;101559.38;5010348;28;20060;-72
2023/06/04 09:58:57;;;;;;;2.92;0.40;;;;;;;13.34;49.68;101564.50;5010518;28;20042;-72
2023/06/04 10:01:28;;;;;;;2.05;0.60;;;;;;;13.27;48.55;101553.84;5009437;28;20042;-72
2023/06/04 10:03:59;;;;;;;2.45;0.50;;;;;;;13.30;48.73;101562.63;5007592;28;20675;-72
2023/06/04 10:06:34;;;;;;;3.05;0.40;;;;;;;13.28;48.31;101566.91;5012794;28;20100;-72
2023/06/04 10:09:07;;;;;;;2.03;0.52;;;;;;;13.25;49.46;101566.78;5014271;28;20099;-71
2023/06/04 10:11:39;;;;;;;1.10;0.20;;;;;;;13.21;48.38;101562.31;5008021;28;20172;-72
2023/06/04 10:14:12;;;;;;;2.28;0.30;;;;;;;13.17;48.82;101569.16;5011606;28;20541;-71
2023/06/04 10:16:43;;;;;;;2.15;0.50;;;;;;;13.15;48.69;101564.75;5009274;28;20068;-73
2023/06/04 10:19:12;;;;;;;0.55;0.38;;;;;;;13.10;48.73;101567.19;5027245;28;20045;-71
2023/06/04 10:21:40;;;;;;;2.70;0.73;;;;;;;13.08;49.29;101567.94;5025513;28;20080;-72
2023/06/04 10:24:14;;;;;;;0.47;0.45;;;;;;;13.05;48.76;101567.88;5027369;28;20046;-72
2023/06/04 10:26:44;;;;;;;0.82;0.40;;;;;;;13.01;49.10;101566.91;5027839;28;20053;-71
2023/06/04 10:29:14;;;;;;;1.33;0.50;;;;;;;12.97;49.15;101563.31;5021803;28;20699;-70
2023/06/04 10:31:45;;;;;;;1.80;0.40;;;;;;;12.97;48.04;101559.84;5024271;28;20156;-70
2023/06/04 10:34:14;;;;;;;1.98;0.50;;;;;;;12.97;49.14;101565.03;5025381;28;20075;-71
2023/06/04 10:36:46;;;;;;;0.52;0.10;;;;;;;12.96;49.00;101568.44;5026614;28;20049;-70
2023/06/04 10:39:27;;;;;;;0.60;0.53;;;;;;;12.93;48.94;101566.63;5019676;28;20122;-72
2023/06/04 10:42:04;;;;;;;0.50;0.40;;;;;;;12.89;49.69;101563.88;5025015;28;20344;-71
2023/06/04 10:44:32;;;;;;;4.88;0.43;;;;;;;12.84;48.77;101563.72;5018879;28;20049;-71
2023/06/04 10:47:01;;;;;;;0.52;0.30;;;;;;;12.82;49.26;101559.31;5026141;28;20107;-71
2023/06/04 10:49:31;;;;;;;1.65;0.57;;;;;;;12.80;49.67;101559.25;5024506;28;20046;-70
2023/06/04 10:52:02;;;;;;;1.75;0.43;;;;;;;12.78;49.40;101569.63;5025211;28;20103;-71
2023/06/04 10:54:33;;;;;;;0.90;0.30;;;;;;;12.73;49.32;101560.75;5026038;28;20050;-71
2023/06/04 10:57:15;;;;;;;2.33;0.30;;;;;;;12.67;49.12;101552.78;5027133;28;20446;-72
2023/06/04 10:59:54;;;;;;;4.00;0.55;;;;;;;12.67;49.65;101560.56;5026305;28;20774;-71
2023/06/04 11:02:23;;;;;;;2.65;0.63;;;;;;;12.67;49.23;101560.56;5024563;28;20049;-71
2023/06/04 11:05:05;;;;;;;2.67;0.50;;;;;;;12.64;50.25;101560.44;5027405;28;20053;-71
2023/06/04 11:07:46;;;;;;;1.33;0.55;;;;;;;12.61;50.05;101556.88;5016450;28;20050;-72
2023/06/04 11:10:17;;;;;;;3.50;0.63;;;;;;;12.60;50.36;101547.31;5025950;28;20103;-71
2023/06/04 11:12:47;;;;;;;0.98;0.38;;;;;;;12.60;50.14;101556.00;5026628;28;20052;-71
2023/06/04 11:15:16;;;;;;;1.02;0.30;;;;;;;12.58;50.98;101555.06;5026387;28;20060;-72
2023/06/04 11:17:55;;;;;;;0.80;0.28;;;;;;;12.53;50.71;101560.13;5023739;28;20061;-71
2023/06/04 11:20:24;;;;;;;1.58;0.50;;;;;;;12.49;50.81;101554.75;5024348;28;20057;-71
2023/06/04 11:22:57;;;;;;;2.10;0.30;;;;;;;12.48;50.61;101558.16;5020086;28;20046;-71
2023/06/04 11:25:30;;;;;;;1.38;0.40;;;;;;;12.46;51.54;101565.03;5026963;28;20129;-71
2023/06/04 11:27:59;;;;;;;4.30;0.50;;;;;;;12.45;50.64;101568.47;5022945;28;20073;-72
2023/06/04 11:30:28;;;;;;;0.40;0.35;;;;;;;12.44;51.47;101571.88;5025510;28;20079;-71
2023/06/04 11:33:03;;;;;;;2.20;0.60;;;;;;;12.41;50.96;101576.97;5024527;28;20060;-72
2023/06/04 11:35:32;;;;;;;2.35;0.60;;;;;;;12.39;52.56;101573.44;5017382;28;20066;-72
2023/06/04 11:38:01;;;;;;;2.88;0.50;;;;;;;12.35;51.44;101567.25;5024672;28;20041;-71